Pilot No. 4 — WDA5463 — position and weather

sailwx.info

Track history (hours):
 
Tides and Currents Weather Stations Pressure Air Temp Water Temp Dewpoint Dewpoint Depression Visibility Wind Speed Wind Dir Waves Ship Positions

Pilot No. 4

Owner: P E P Inc, FORT LAUDERDALE, FL. More information available from US FCC via Universal Licensing System and Coast Guard Vessel Documentation Center.

Last reported at 2014-Nov-26 13:22 UTC. Time now 2014-Nov-26 21:31 UTC.
Position N 26°06' W 080°07'.

MMSI: 495270931.

Date/timePositionNaut miles runAvg speedWind from/ knotsBaromVisibWave heightAir tempDewpointWater temp
2014-Nov-26 13:22N 26°06' W 080°07'0 0.5
2014-Nov-26 12:33N 26°05' W 080°07'3 2.8
2014-Nov-26 11:33N 26°06' W 080°04'2 1.6
2014-Nov-26 10:33N 26°06' W 080°06'1 1.1
2014-Nov-26 09:32N 26°06' W 080°07'0 0.4
2014-Nov-26 08:33N 26°06' W 080°07'1 1.4
2014-Nov-26 07:33N 26°06' W 080°06'2 2.5
2014-Nov-26 06:33N 26°05' W 080°03'4 3.7
2014-Nov-26 05:33N 26°06' W 080°07'1 0.2
2014-Nov-26 02:34N 26°06' W 080°06'1 0.3
2014-Nov-25 23:16N 26°06' W 080°07'1 1.9
2014-Nov-25 22:33N 26°05' W 080°07'1 0.6
2014-Nov-25 21:33N 26°05' W 080°07'1 0.2
2014-Nov-25 18:12N 26°06' W 080°07'0 0.3
2014-Nov-25 17:33N 26°06' W 080°07'2 2.1
2014-Nov-25 16:33N 26°06' W 080°05'2 1.9
2014-Nov-25 15:33N 26°06' W 080°07'0 0.3
2014-Nov-25 14:33N 26°06' W 080°07'0 0.3
2014-Nov-25 13:33N 26°06' W 080°07'0 0.2
2014-Nov-25 11:22N 26°06' W 080°07'0 0.2
2014-Nov-25 10:34N 26°06' W 080°07'1 0.1
2014-Nov-25 04:04N 26°06' W 080°07'1 1.8
2014-Nov-25 03:33N 26°05' W 080°07'4 3.6
2014-Nov-25 02:33N 26°06' W 080°03'4 4.0
2014-Nov-25 01:33N 26°05' W 080°07'1 0.7
2014-Nov-25 00:33N 26°06' W 080°07'1 0.9
2014-Nov-24 23:33N 26°06' W 080°07'1 0.8
2014-Nov-24 22:33N 26°05' W 080°07'1 1.1
2014-Nov-24 21:33N 26°06' W 080°06'1 0.1
2014-Nov-24 13:33N 26°06' W 080°07'1 0.7
2014-Nov-24 12:33N 26°06' W 080°06'1 0.4
2014-Nov-24 10:33N 26°06' W 080°07'0 0.1
2014-Nov-24 09:33N 26°06' W 080°07'0 0.0
2014-Nov-24 06:33N 26°06' W 080°07'1 0.7
2014-Nov-24 05:33N 26°05' W 080°07'4 4.5
2014-Nov-24 04:33N 26°06' W 080°02'5 4.9
2014-Nov-24 03:33N 26°06' W 080°07'0 0.3
2014-Nov-24 02:33N 26°06' W 080°07'0 0.1
2014-Nov-24 01:33N 26°06' W 080°07'0 0.1
2014-Nov-24 00:33N 26°06' W 080°07'0 0.0
2014-Nov-23 23:33N 26°06' W 080°07'1 1.2
2014-Nov-23 22:34N 26°06' W 080°06'0 0.1
2014-Nov-23 21:33N 26°06' W 080°06'1 0.7
2014-Nov-23 20:33N 26°06' W 080°07'1 0.1
2014-Nov-23 16:06N 26°06' W 080°07'3 4.7
2014-Nov-23 15:33N 26°06' W 080°04'3 2.7
2014-Nov-23 14:33N 26°06' W 080°07'1 0.9
2014-Nov-23 13:33N 26°06' W 080°07'0 0.4
2014-Nov-23 12:33N 26°06' W 080°06'1 0.8
2014-Nov-23 11:33N 26°06' W 080°05'1 1.0
2014-Nov-23 10:33N 26°06' W 080°06'1 0.7
2014-Nov-23 09:33N 26°05' W 080°07'0 0.0
2014-Nov-23 03:33N 26°05' W 080°07'0 0.3
2014-Nov-23 02:33N 26°05' W 080°07'1 1.1
2014-Nov-23 01:33N 26°06' W 080°07'3 3.1
2014-Nov-23 00:34N 26°06' W 080°04'1 0.5
2014-Nov-22 23:34N 26°05' W 080°03'3 3.0
2014-Nov-22 22:33N 26°05' W 080°07'0 0.4
2014-Nov-22 21:34N 26°06' W 080°07'1 0.1
2014-Nov-22 13:26N 26°06' W 080°07'1 0.8
2014-Nov-22 12:33N 26°06' W 080°07'1 1.5
2014-Nov-22 11:33N 26°05' W 080°05'2 1.5
2014-Nov-22 10:33N 26°05' W 080°07'1 0.6
2014-Nov-22 09:33N 26°05' W 080°07'1 0.5
2014-Nov-22 08:18N 26°06' W 080°07'3 4.5
2014-Nov-22 07:33N 26°06' W 080°03'3 3.0
2014-Nov-22 06:24N 26°06' W 080°07'1 1.7
2014-Nov-22 05:33N 26°06' W 080°06'2 0.5
2014-Nov-22 02:32N 26°06' W 080°07'0 0.0
2014-Nov-22 01:26N 26°06' W 080°07'1 1.3
2014-Nov-22 00:33N 26°06' W 080°06'1 0.8
2014-Nov-21 23:33N 26°05' W 080°07'1 0.7
2014-Nov-21 22:32N 26°06' W 080°07'2 2.4
2014-Nov-21 21:33N 26°05' W 080°05'2 1.8
2014-Nov-21 20:33N 26°05' W 080°07'1 1.2
2014-Nov-21 19:33N 26°06' W 080°07'1 0.6
2014-Nov-21 18:34N 26°06' W 080°07'0 0.5
2014-Nov-21 17:34N 26°06' W 080°07'1 1.1
2014-Nov-21 16:33N 26°05' W 080°07'1 0.8
2014-Nov-21 15:33N 26°06' W 080°07'0 0.4
2014-Nov-21 14:34N 26°06' W 080°07'1 1.3
2014-Nov-21 13:33N 26°06' W 080°06'1 1.2
2014-Nov-21 12:33N 26°06' W 080°05'1 0.3
2014-Nov-21 10:33N 26°05' W 080°04'3 2.5
2014-Nov-21 09:33N 26°05' W 080°07'1 0.5
2014-Nov-21 08:05N 26°06' W 080°07'1 1.7
2014-Nov-21 07:33N 26°06' W 080°06'1 0.7
2014-Nov-21 06:18N 26°06' W 080°07'1 1.7
2014-Nov-21 05:33N 26°06' W 080°06'2 2.0
2014-Nov-21 04:33N 26°05' W 080°04'3 3.4
2014-Nov-21 03:32N 26°06' W 080°07'3 3.5
2014-Nov-21 02:33N 26°04' W 080°04'3 3.2
2014-Nov-21 01:33N 26°06' W 080°07'2 1.9
2014-Nov-21 00:33N 26°05' W 080°05'2 1.8
2014-Nov-20 23:33N 26°05' W 080°07'1 0.7
2014-Nov-20 22:34N 26°06' W 080°07'1 0.8
2014-Nov-20 21:33N 26°06' W 080°07'0 0.2
2014-Nov-20 20:33N 26°05' W 080°07'0 0.3
2014-Nov-20 19:33N 26°06' W 080°07'1 0.2
2014-Nov-20 15:33N 26°06' W 080°07'1 0.7
2014-Nov-20 14:33N 26°06' W 080°07'2 1.7
2014-Nov-20 13:33N 26°06' W 080°05'2 1.7
2014-Nov-20 12:33N 26°06' W 080°07'0 0.2
2014-Nov-20 11:33N 26°06' W 080°07'3 2.9
2014-Nov-20 10:33N 26°05' W 080°04'1 1.0
2014-Nov-20 09:34N 26°05' W 080°05'1 1.4
2014-Nov-20 08:34N 26°06' W 080°06'0 0.1
2014-Nov-20 05:33N 26°06' W 080°06'2 1.5
2014-Nov-20 04:28N 26°06' W 080°07'1 0.8
2014-Nov-20 03:33N 26°06' W 080°07'1 0.7
2014-Nov-20 02:33N 26°06' W 080°07'0 0.0
2014-Nov-20 01:33N 26°06' W 080°07'1 0.6
2014-Nov-20 00:33N 26°06' W 080°07'1 0.4
2014-Nov-19 23:04N 26°06' W 080°07'1 2.6
2014-Nov-19 22:33N 26°06' W 080°06'0 0.4
2014-Nov-19 21:33N 26°06' W 080°07'0 0.2
2014-Nov-19 20:33N 26°06' W 080°07'1 0.1
2014-Nov-19 12:03N 26°06' W 080°07'2 4.3
2014-Nov-19 11:33N 26°06' W 080°05'2 2.1
2014-Nov-19 10:33N 26°06' W 080°07'0 0.0
2014-Nov-19 09:33N 26°06' W 080°07'0 0.0
2014-Nov-19 08:33N 26°06' W 080°07'1 0.5
2014-Nov-19 07:33N 26°06' W 080°07'1 0.7
2014-Nov-19 06:33N 26°06' W 080°06'4 3.7
2014-Nov-19 05:33N 26°06' W 080°02'3 1.1
2014-Nov-19 02:33N 26°06' W 080°06'1 1.3
2014-Nov-19 01:33N 26°06' W 080°07'0 0.1
2014-Nov-18 21:08N 26°06' W 080°07'2 1.4
2014-Nov-18 19:33N 26°06' W 080°05'1 0.3
2014-Nov-18 17:33N 26°06' W 080°06'1 1.1
2014-Nov-18 16:33N 26°05' W 080°07'0 0.4
2014-Nov-18 15:33N 26°06' W 080°07'0 0.3
2014-Nov-18 14:33N 26°05' W 080°07'0 0.2
2014-Nov-18 13:33N 26°05' W 080°07'1 0.8
2014-Nov-18 12:33N 26°06' W 080°07'1 1.1
2014-Nov-18 11:33N 26°05' W 080°07'1 1.1
2014-Nov-18 10:33N 26°06' W 080°07'0 0.0
2014-Nov-18 09:33N 26°06' W 080°07'1 1.3
2014-Nov-18 08:33N 26°06' W 080°06'1 1.3
2014-Nov-18 07:33N 26°06' W 080°07'2 1.8
2014-Nov-18 06:33N 26°06' W 080°05'0 0.0
2014-Nov-18 04:33N 26°06' W 080°05'2 0.2
2014-Nov-17 18:11N 26°06' W 080°07'2 3.0
2014-Nov-17 17:33N 26°06' W 080°05'1 1.3
2014-Nov-17 16:33N 26°05' W 080°07'3 2.7
2014-Nov-17 15:33N 26°06' W 080°04'1 0.6
2014-Nov-17 14:33N 26°06' W 080°05'2 2.3
2014-Nov-17 13:34N 26°05' W 080°07'0 0.4
2014-Nov-17 12:33N 26°06' W 080°07'0 0.1
2014-Nov-17 11:33N 26°06' W 080°07'0 0.4
2014-Nov-17 10:34N 26°05' W 080°07'1 0.7
2014-Nov-17 09:34N 26°06' W 080°06'3 2.9
2014-Nov-17 08:33N 26°07' W 080°04'4 3.5
2014-Nov-17 07:33N 26°06' W 080°07'0 0.0
2014-Nov-17 06:33N 26°06' W 080°07'1 0.5
2014-Nov-17 05:33N 26°06' W 080°07'1 0.5
2014-Nov-17 04:33N 26°06' W 080°07'0 0.1
2014-Nov-17 02:32N 26°06' W 080°07'2 1.1
2014-Nov-17 00:34N 26°05' W 080°05'1 1.4
2014-Nov-16 23:34N 26°06' W 080°06'1 0.8
2014-Nov-16 22:33N 26°06' W 080°06'1 1.4
2014-Nov-16 21:33N 26°05' W 080°07'1 0.1
2014-Nov-16 15:32N 26°06' W 080°07'  
Track history (hours):
 
Tides and Currents Weather Stations Pressure Air Temp Water Temp Dewpoint Dewpoint Depression Visibility Wind Speed Wind Dir Waves Ship Positions

Pilot No. 4

Owner: P E P Inc, FORT LAUDERDALE, FL. More information available from US FCC via Universal Licensing System and Coast Guard Vessel Documentation Center.

Last reported at 2014-Nov-26 13:22 UTC. Time now 2014-Nov-26 21:31 UTC.
Position N 26°06' W 080°07'.

MMSI: 495270931.

Date/timePositionNaut miles runAvg speedWind from/ knotsBaromVisibWave heightAir tempDewpointWater temp
2014-Nov-26 13:22N 26°06' W 080°07'0 0.5
2014-Nov-26 12:33N 26°05' W 080°07'3 2.8
2014-Nov-26 11:33N 26°06' W 080°04'2 1.6
2014-Nov-26 10:33N 26°06' W 080°06'1 1.1
2014-Nov-26 09:32N 26°06' W 080°07'0 0.4
2014-Nov-26 08:33N 26°06' W 080°07'1 1.4
2014-Nov-26 07:33N 26°06' W 080°06'2 2.5
2014-Nov-26 06:33N 26°05' W 080°03'4 3.7
2014-Nov-26 05:33N 26°06' W 080°07'1 0.2
2014-Nov-26 02:34N 26°06' W 080°06'1 0.3
2014-Nov-25 23:16N 26°06' W 080°07'1 1.9
2014-Nov-25 22:33N 26°05' W 080°07'1 0.6
2014-Nov-25 21:33N 26°05' W 080°07'1 0.2
2014-Nov-25 18:12N 26°06' W 080°07'0 0.3
2014-Nov-25 17:33N 26°06' W 080°07'2 2.1
2014-Nov-25 16:33N 26°06' W 080°05'2 1.9
2014-Nov-25 15:33N 26°06' W 080°07'0 0.3
2014-Nov-25 14:33N 26°06' W 080°07'0 0.3
2014-Nov-25 13:33N 26°06' W 080°07'0 0.2
2014-Nov-25 11:22N 26°06' W 080°07'0 0.2
2014-Nov-25 10:34N 26°06' W 080°07'1 0.1
2014-Nov-25 04:04N 26°06' W 080°07'1 1.8
2014-Nov-25 03:33N 26°05' W 080°07'4 3.6
2014-Nov-25 02:33N 26°06' W 080°03'4 4.0
2014-Nov-25 01:33N 26°05' W 080°07'1 0.7
2014-Nov-25 00:33N 26°06' W 080°07'1 0.9
2014-Nov-24 23:33N 26°06' W 080°07'1 0.8
2014-Nov-24 22:33N 26°05' W 080°07'1 1.1
2014-Nov-24 21:33N 26°06' W 080°06'1 0.1
2014-Nov-24 13:33N 26°06' W 080°07'1 0.7
2014-Nov-24 12:33N 26°06' W 080°06'1 0.4
2014-Nov-24 10:33N 26°06' W 080°07'0 0.1
2014-Nov-24 09:33N 26°06' W 080°07'0 0.0
2014-Nov-24 06:33N 26°06' W 080°07'1 0.7
2014-Nov-24 05:33N 26°05' W 080°07'4 4.5
2014-Nov-24 04:33N 26°06' W 080°02'5 4.9
2014-Nov-24 03:33N 26°06' W 080°07'0 0.3
2014-Nov-24 02:33N 26°06' W 080°07'0 0.1
2014-Nov-24 01:33N 26°06' W 080°07'0 0.1
2014-Nov-24 00:33N 26°06' W 080°07'0 0.0
2014-Nov-23 23:33N 26°06' W 080°07'1 1.2
2014-Nov-23 22:34N 26°06' W 080°06'0 0.1
2014-Nov-23 21:33N 26°06' W 080°06'1 0.7
2014-Nov-23 20:33N 26°06' W 080°07'1 0.1
2014-Nov-23 16:06N 26°06' W 080°07'3 4.7
2014-Nov-23 15:33N 26°06' W 080°04'3 2.7
2014-Nov-23 14:33N 26°06' W 080°07'1 0.9
2014-Nov-23 13:33N 26°06' W 080°07'0 0.4
2014-Nov-23 12:33N 26°06' W 080°06'1 0.8
2014-Nov-23 11:33N 26°06' W 080°05'1 1.0
2014-Nov-23 10:33N 26°06' W 080°06'1 0.7
2014-Nov-23 09:33N 26°05' W 080°07'0 0.0
2014-Nov-23 03:33N 26°05' W 080°07'0 0.3
2014-Nov-23 02:33N 26°05' W 080°07'1 1.1
2014-Nov-23 01:33N 26°06' W 080°07'3 3.1
2014-Nov-23 00:34N 26°06' W 080°04'1 0.5
2014-Nov-22 23:34N 26°05' W 080°03'3 3.0
2014-Nov-22 22:33N 26°05' W 080°07'0 0.4
2014-Nov-22 21:34N 26°06' W 080°07'1 0.1
2014-Nov-22 13:26N 26°06' W 080°07'1 0.8
2014-Nov-22 12:33N 26°06' W 080°07'1 1.5
2014-Nov-22 11:33N 26°05' W 080°05'2 1.5
2014-Nov-22 10:33N 26°05' W 080°07'1 0.6
2014-Nov-22 09:33N 26°05' W 080°07'1 0.5
2014-Nov-22 08:18N 26°06' W 080°07'3 4.5
2014-Nov-22 07:33N 26°06' W 080°03'3 3.0
2014-Nov-22 06:24N 26°06' W 080°07'1 1.7
2014-Nov-22 05:33N 26°06' W 080°06'2 0.5
2014-Nov-22 02:32N 26°06' W 080°07'0 0.0
2014-Nov-22 01:26N 26°06' W 080°07'1 1.3
2014-Nov-22 00:33N 26°06' W 080°06'1 0.8
2014-Nov-21 23:33N 26°05' W 080°07'1 0.7
2014-Nov-21 22:32N 26°06' W 080°07'2 2.4
2014-Nov-21 21:33N 26°05' W 080°05'2 1.8
2014-Nov-21 20:33N 26°05' W 080°07'1 1.2
2014-Nov-21 19:33N 26°06' W 080°07'1 0.6
2014-Nov-21 18:34N 26°06' W 080°07'0 0.5
2014-Nov-21 17:34N 26°06' W 080°07'1 1.1
2014-Nov-21 16:33N 26°05' W 080°07'1 0.8
2014-Nov-21 15:33N 26°06' W 080°07'0 0.4
2014-Nov-21 14:34N 26°06' W 080°07'1 1.3
2014-Nov-21 13:33N 26°06' W 080°06'1 1.2
2014-Nov-21 12:33N 26°06' W 080°05'1 0.3
2014-Nov-21 10:33N 26°05' W 080°04'3 2.5
2014-Nov-21 09:33N 26°05' W 080°07'1 0.5
2014-Nov-21 08:05N 26°06' W 080°07'1 1.7
2014-Nov-21 07:33N 26°06' W 080°06'1 0.7
2014-Nov-21 06:18N 26°06' W 080°07'1 1.7
2014-Nov-21 05:33N 26°06' W 080°06'2 2.0
2014-Nov-21 04:33N 26°05' W 080°04'3 3.4
2014-Nov-21 03:32N 26°06' W 080°07'3 3.5
2014-Nov-21 02:33N 26°04' W 080°04'3 3.2
2014-Nov-21 01:33N 26°06' W 080°07'2 1.9
2014-Nov-21 00:33N 26°05' W 080°05'2 1.8
2014-Nov-20 23:33N 26°05' W 080°07'1 0.7
2014-Nov-20 22:34N 26°06' W 080°07'1 0.8
2014-Nov-20 21:33N 26°06' W 080°07'0 0.2
2014-Nov-20 20:33N 26°05' W 080°07'0 0.3
2014-Nov-20 19:33N 26°06' W 080°07'1 0.2
2014-Nov-20 15:33N 26°06' W 080°07'1 0.7
2014-Nov-20 14:33N 26°06' W 080°07'2 1.7
2014-Nov-20 13:33N 26°06' W 080°05'2 1.7
2014-Nov-20 12:33N 26°06' W 080°07'0 0.2
2014-Nov-20 11:33N 26°06' W 080°07'3 2.9
2014-Nov-20 10:33N 26°05' W 080°04'1 1.0
2014-Nov-20 09:34N 26°05' W 080°05'1 1.4
2014-Nov-20 08:34N 26°06' W 080°06'0 0.1
2014-Nov-20 05:33N 26°06' W 080°06'2 1.5
2014-Nov-20 04:28N 26°06' W 080°07'1 0.8
2014-Nov-20 03:33N 26°06' W 080°07'1 0.7
2014-Nov-20 02:33N 26°06' W 080°07'0 0.0
2014-Nov-20 01:33N 26°06' W 080°07'1 0.6
2014-Nov-20 00:33N 26°06' W 080°07'1 0.4
2014-Nov-19 23:04N 26°06' W 080°07'1 2.6
2014-Nov-19 22:33N 26°06' W 080°06'0 0.4
2014-Nov-19 21:33N 26°06' W 080°07'0 0.2
2014-Nov-19 20:33N 26°06' W 080°07'1 0.1
2014-Nov-19 12:03N 26°06' W 080°07'2 4.3
2014-Nov-19 11:33N 26°06' W 080°05'2 2.1
2014-Nov-19 10:33N 26°06' W 080°07'0 0.0
2014-Nov-19 09:33N 26°06' W 080°07'0 0.0
2014-Nov-19 08:33N 26°06' W 080°07'1 0.5
2014-Nov-19 07:33N 26°06' W 080°07'1 0.7
2014-Nov-19 06:33N 26°06' W 080°06'4 3.7
2014-Nov-19 05:33N 26°06' W 080°02'3 1.1
2014-Nov-19 02:33N 26°06' W 080°06'1 1.3
2014-Nov-19 01:33N 26°06' W 080°07'0 0.1
2014-Nov-18 21:08N 26°06' W 080°07'2 1.4
2014-Nov-18 19:33N 26°06' W 080°05'1 0.3
2014-Nov-18 17:33N 26°06' W 080°06'1 1.1
2014-Nov-18 16:33N 26°05' W 080°07'0 0.4
2014-Nov-18 15:33N 26°06' W 080°07'0 0.3
2014-Nov-18 14:33N 26°05' W 080°07'0 0.2
2014-Nov-18 13:33N 26°05' W 080°07'1 0.8
2014-Nov-18 12:33N 26°06' W 080°07'1 1.1
2014-Nov-18 11:33N 26°05' W 080°07'1 1.1
2014-Nov-18 10:33N 26°06' W 080°07'0 0.0
2014-Nov-18 09:33N 26°06' W 080°07'1 1.3
2014-Nov-18 08:33N 26°06' W 080°06'1 1.3
2014-Nov-18 07:33N 26°06' W 080°07'2 1.8
2014-Nov-18 06:33N 26°06' W 080°05'0 0.0
2014-Nov-18 04:33N 26°06' W 080°05'2 0.2
2014-Nov-17 18:11N 26°06' W 080°07'2 3.0
2014-Nov-17 17:33N 26°06' W 080°05'1 1.3
2014-Nov-17 16:33N 26°05' W 080°07'3 2.7
2014-Nov-17 15:33N 26°06' W 080°04'1 0.6
2014-Nov-17 14:33N 26°06' W 080°05'2 2.3
2014-Nov-17 13:34N 26°05' W 080°07'0 0.4
2014-Nov-17 12:33N 26°06' W 080°07'0 0.1
2014-Nov-17 11:33N 26°06' W 080°07'0 0.4
2014-Nov-17 10:34N 26°05' W 080°07'1 0.7
2014-Nov-17 09:34N 26°06' W 080°06'3 2.9
2014-Nov-17 08:33N 26°07' W 080°04'4 3.5
2014-Nov-17 07:33N 26°06' W 080°07'0 0.0
2014-Nov-17 06:33N 26°06' W 080°07'1 0.5
2014-Nov-17 05:33N 26°06' W 080°07'1 0.5
2014-Nov-17 04:33N 26°06' W 080°07'0 0.1
2014-Nov-17 02:32N 26°06' W 080°07'2 1.1
2014-Nov-17 00:34N 26°05' W 080°05'1 1.4
2014-Nov-16 23:34N 26°06' W 080°06'1 0.8
2014-Nov-16 22:33N 26°06' W 080°06'1 1.4
2014-Nov-16 21:33N 26°05' W 080°07'1 0.1
2014-Nov-16 15:32N 26°06' W 080°07'  

Dump ship's entire track history